createdAt,value
2023-05-21T00:02:05.789Z,100.00
2023-05-21T00:04:33.861Z,100.00
2023-05-21T00:07:01.278Z,100.00
2023-05-21T00:09:28.441Z,100.00
2023-05-21T00:11:55.598Z,100.00
2023-05-21T00:14:22.710Z,100.00
2023-05-21T00:16:49.950Z,100.00
2023-05-21T00:19:17.282Z,100.00
2023-05-21T00:21:45.975Z,100.00
2023-05-21T00:24:13.391Z,100.00
2023-05-21T00:26:40.489Z,100.00
2023-05-21T00:29:07.647Z,100.00
2023-05-21T00:31:34.976Z,100.00
2023-05-21T00:34:02.200Z,100.00
2023-05-21T00:36:30.888Z,100.00
2023-05-21T00:39:00.194Z,100.00
2023-05-21T00:41:27.304Z,100.00
2023-05-21T00:43:56.075Z,100.00
2023-05-21T00:46:24.257Z,100.00
2023-05-21T00:48:52.384Z,100.00
2023-05-21T00:51:21.630Z,100.00
2023-05-21T00:53:51.572Z,100.00
2023-05-21T00:56:23.936Z,100.00
2023-05-21T00:58:54.553Z,100.00
2023-05-21T01:01:24.408Z,100.00
2023-05-21T01:03:57.678Z,100.00
2023-05-21T01:06:24.853Z,100.00
2023-05-21T01:08:52.125Z,100.00
2023-05-21T01:11:39.680Z,100.00
2023-05-21T01:14:09.447Z,100.00
2023-05-21T01:16:43.385Z,100.00
2023-05-21T01:19:15.525Z,100.00
2023-05-21T01:21:46.070Z,100.00
2023-05-21T01:24:15.112Z,100.00
2023-05-21T01:26:44.261Z,100.00
2023-05-21T01:29:13.309Z,100.00
2023-05-21T01:31:55.478Z,100.00
2023-05-21T01:34:30.210Z,100.00
2023-05-21T01:37:03.700Z,100.00
2023-05-21T01:39:44.114Z,100.00
2023-05-21T01:42:12.025Z,100.00
2023-05-21T01:44:42.398Z,100.00
2023-05-21T01:47:11.145Z,100.00
2023-05-21T01:49:39.064Z,100.00
2023-05-21T01:52:06.461Z,100.00
2023-05-21T01:54:33.692Z,100.00
2023-05-21T01:57:01.726Z,100.00
2023-05-21T01:59:30.048Z,100.00
2023-05-21T02:01:57.305Z,100.00
2023-05-21T02:04:24.465Z,100.00
2023-05-21T02:06:55.660Z,100.00
2023-05-21T02:09:22.874Z,100.00
2023-05-21T02:11:50.066Z,100.00
2023-05-21T02:14:17.289Z,100.00
2023-05-21T02:16:44.967Z,100.00
2023-05-21T02:19:12.240Z,100.00
2023-05-21T02:21:45.349Z,100.00
2023-05-21T02:24:12.497Z,100.00
2023-05-21T02:26:39.648Z,100.00
2023-05-21T02:29:06.813Z,100.00
2023-05-21T02:31:33.977Z,100.00
2023-05-21T02:34:01.934Z,100.00
2023-05-21T02:36:33.366Z,100.00
2023-05-21T02:39:01.782Z,100.00
2023-05-21T02:41:29.393Z,100.00
2023-05-21T02:43:56.595Z,100.00
2023-05-21T02:46:24.594Z,100.00
2023-05-21T02:48:53.064Z,100.00
2023-05-21T02:51:20.469Z,100.00
2023-05-21T02:53:48.371Z,100.00
2023-05-21T02:56:15.932Z,100.00
2023-05-21T02:58:43.294Z,100.00
2023-05-21T03:01:11.118Z,100.00
2023-05-21T03:03:38.578Z,100.00
2023-05-21T03:06:05.857Z,100.00
2023-05-21T03:08:33.427Z,100.00
2023-05-21T03:11:00.776Z,100.00
2023-05-21T03:13:28.058Z,100.00
2023-05-21T03:15:56.361Z,100.00
2023-05-21T03:18:28.963Z,100.00
2023-05-21T03:20:58.839Z,100.00
2023-05-21T03:23:26.923Z,100.00
2023-05-21T03:25:54.693Z,100.00
2023-05-21T03:28:22.448Z,100.00
2023-05-21T03:30:51.113Z,100.00
2023-05-21T03:33:37.052Z,100.00
2023-05-21T03:36:17.476Z,100.00
2023-05-21T03:38:44.788Z,100.00
2023-05-21T03:41:12.970Z,100.00
2023-05-21T03:43:42.643Z,100.00
2023-05-21T03:46:09.990Z,100.00
2023-05-21T03:48:40.073Z,100.00
2023-05-21T03:51:08.058Z,100.00
2023-05-21T03:53:35.695Z,100.00
2023-05-21T03:56:02.826Z,100.00
2023-05-21T03:58:31.453Z,100.00
2023-05-21T04:00:59.687Z,100.00
2023-05-21T04:03:27.040Z,100.00
2023-05-21T04:05:54.341Z,100.00
2023-05-21T04:08:21.566Z,100.00
2023-05-21T04:10:48.884Z,100.00
2023-05-21T04:13:17.198Z,100.00
2023-05-21T04:15:47.514Z,100.00
2023-05-21T04:18:17.776Z,100.00
2023-05-21T04:20:45.567Z,100.00
2023-05-21T04:23:12.746Z,100.00
2023-05-21T04:25:40.604Z,100.00
2023-05-21T04:28:08.104Z,100.00
2023-05-21T04:30:35.704Z,100.00
2023-05-21T04:33:04.124Z,100.00
2023-05-21T04:35:35.474Z,100.00
2023-05-21T04:38:05.582Z,100.00
2023-05-21T04:40:32.831Z,100.00
2023-05-21T04:43:04.608Z,100.00
2023-05-21T04:45:31.757Z,100.00
2023-05-21T04:48:00.555Z,100.00
2023-05-21T04:50:33.733Z,100.00
2023-05-21T04:53:01.966Z,100.00
2023-05-21T04:55:31.103Z,100.00
2023-05-21T04:57:59.258Z,100.00
2023-05-21T05:00:26.404Z,100.00
2023-05-21T05:02:53.772Z,100.00
2023-05-21T05:05:21.889Z,100.00
2023-05-21T05:07:49.036Z,100.00
2023-05-21T05:10:16.565Z,100.00
2023-05-21T05:12:44.934Z,100.00
2023-05-21T05:15:12.092Z,100.00
2023-05-21T05:17:39.863Z,100.00
2023-05-21T05:20:08.440Z,100.00
2023-05-21T05:22:35.766Z,100.00
2023-05-21T05:25:03.017Z,100.00
2023-05-21T05:27:30.538Z,100.00
2023-05-21T05:29:57.701Z,100.00
2023-05-21T05:32:25.007Z,100.00
2023-05-21T05:34:52.287Z,100.00
2023-05-21T05:37:19.423Z,100.00
2023-05-21T05:39:46.514Z,100.00
2023-05-21T05:42:14.585Z,100.00
2023-05-21T05:44:44.613Z,100.00
2023-05-21T05:47:18.166Z,100.00
2023-05-21T05:49:45.297Z,100.00
2023-05-21T05:52:12.674Z,100.00
2023-05-21T05:54:39.756Z,100.00
2023-05-21T05:57:06.935Z,100.00
2023-05-21T05:59:35.741Z,100.00
2023-05-21T06:02:07.117Z,100.00
2023-05-21T06:04:35.027Z,100.00
2023-05-21T06:07:03.591Z,100.00
2023-05-21T06:09:31.326Z,100.00
2023-05-21T06:11:59.527Z,100.00
2023-05-21T06:14:27.045Z,100.00
2023-05-21T06:16:54.382Z,100.00
2023-05-21T06:19:21.813Z,100.00
2023-05-21T06:21:49.116Z,100.00
2023-05-21T06:24:16.992Z,100.00
2023-05-21T06:26:44.591Z,100.00
2023-05-21T06:29:15.538Z,100.00
2023-05-21T06:31:44.338Z,100.00
2023-05-21T06:34:11.932Z,100.00
2023-05-21T06:36:39.170Z,100.00
2023-05-21T06:39:07.007Z,100.00
2023-05-21T06:41:35.606Z,100.00
2023-05-21T06:44:23.050Z,100.00
2023-05-21T06:47:12.633Z,100.00
2023-05-21T06:49:40.236Z,100.00
2023-05-21T06:52:08.361Z,100.00
2023-05-21T06:54:36.388Z,100.00
2023-05-21T06:57:03.543Z,100.00
2023-05-21T06:59:31.711Z,100.00
2023-05-21T07:01:59.691Z,100.00
2023-05-21T07:04:28.037Z,100.00
2023-05-21T07:06:55.216Z,100.00
2023-05-21T07:09:24.316Z,100.00
2023-05-21T07:11:53.034Z,100.00
2023-05-21T07:14:20.283Z,100.00
2023-05-21T07:16:47.507Z,100.00
2023-05-21T07:19:15.481Z,100.00
2023-05-21T07:21:43.715Z,100.00
2023-05-21T07:24:11.584Z,100.00
2023-05-21T07:26:40.601Z,100.00
2023-05-21T07:29:09.949Z,100.00
2023-05-21T07:31:37.410Z,100.00
2023-05-21T07:34:04.855Z,100.00
2023-05-21T07:36:33.727Z,100.00
2023-05-21T07:39:01.815Z,100.00
2023-05-21T07:41:29.592Z,100.00
2023-05-21T07:43:58.961Z,100.00
2023-05-21T07:46:26.113Z,100.00
2023-05-21T07:48:56.049Z,100.00
2023-05-21T07:51:23.402Z,100.00
2023-05-21T07:53:50.564Z,100.00
2023-05-21T07:56:21.577Z,100.00
2023-05-21T07:58:49.270Z,100.00
2023-05-21T08:01:17.236Z,100.00
2023-05-21T08:03:44.497Z,100.00
2023-05-21T08:06:12.035Z,100.00
2023-05-21T08:08:39.275Z,100.00
2023-05-21T08:11:06.526Z,100.00
2023-05-21T08:13:34.951Z,100.00
2023-05-21T08:16:04.092Z,100.00
2023-05-21T08:18:34.274Z,100.00
2023-05-21T08:21:01.621Z,100.00
2023-05-21T08:23:29.129Z,100.00
2023-05-21T08:25:59.156Z,100.00
2023-05-21T08:28:27.724Z,100.00
2023-05-21T08:30:55.652Z,100.00
2023-05-21T08:33:24.588Z,100.00
2023-05-21T08:35:51.699Z,100.00
2023-05-21T08:38:28.761Z,100.00
2023-05-21T08:41:24.146Z,100.00
2023-05-21T08:43:57.872Z,100.00
2023-05-21T08:46:32.262Z,100.00
2023-05-21T08:49:03.010Z,100.00
2023-05-21T08:51:33.931Z,100.00
2023-05-21T08:54:02.610Z,100.00
2023-05-21T08:56:31.896Z,99.07
2023-05-21T08:58:59.603Z,100.00
2023-05-21T09:01:33.371Z,97.50
2023-05-21T09:04:20.339Z,92.93
2023-05-21T09:06:51.899Z,93.34
2023-05-21T09:09:34.691Z,91.78
2023-05-21T09:12:02.489Z,92.43
2023-05-21T09:14:30.791Z,87.72
2023-05-21T09:17:14.747Z,92.09
2023-05-21T09:20:17.640Z,83.75
2023-05-21T09:22:54.272Z,88.38
2023-05-21T09:25:31.305Z,81.23
2023-05-21T09:28:04.322Z,85.77
2023-05-21T09:30:35.031Z,86.89
2023-05-21T09:33:04.028Z,84.55
2023-05-21T09:35:32.984Z,83.79
2023-05-21T09:38:01.935Z,80.18
2023-05-21T09:40:29.097Z,82.96
2023-05-21T09:43:01.516Z,83.16
2023-05-21T09:45:28.915Z,79.15
2023-05-21T09:47:58.766Z,78.17
2023-05-21T09:50:27.988Z,79.52
2023-05-21T09:52:55.683Z,78.55
2023-05-21T09:55:24.058Z,76.59
2023-05-21T09:57:54.930Z,71.89
2023-05-21T10:00:30.210Z,74.28
2023-05-21T10:03:01.004Z,70.01
2023-05-21T10:05:29.851Z,72.42
2023-05-21T10:08:04.380Z,70.59
2023-05-21T10:10:37.279Z,70.01
2023-05-21T10:13:08.403Z,68.35
2023-05-21T10:15:41.465Z,69.61
2023-05-21T10:18:12.671Z,67.09
2023-05-21T10:20:41.965Z,67.26
2023-05-21T10:23:09.986Z,71.59
2023-05-21T10:25:37.680Z,69.05
2023-05-21T10:28:07.307Z,65.10
2023-05-21T10:30:36.506Z,64.04
2023-05-21T10:33:04.593Z,65.32
2023-05-21T10:35:33.971Z,75.97
2023-05-21T10:38:04.528Z,79.58
2023-05-21T10:40:31.933Z,87.96
2023-05-21T10:43:32.840Z,95.46
2023-05-21T10:46:21.721Z,100.00
2023-05-21T10:49:01.083Z,100.00
2023-05-21T10:52:17.285Z,100.00
2023-05-21T10:55:27.189Z,100.00
2023-05-21T10:58:29.908Z,100.00
2023-05-21T11:01:01.909Z,100.00
2023-05-21T11:03:30.448Z,100.00
2023-05-21T11:05:58.062Z,100.00
2023-05-21T11:08:31.126Z,100.00
2023-05-21T11:10:59.133Z,100.00
2023-05-21T11:13:48.961Z,100.00
2023-05-21T11:16:17.964Z,100.00
2023-05-21T11:18:46.342Z,100.00
2023-05-21T11:21:19.068Z,90.02
2023-05-21T11:24:03.519Z,86.39
2023-05-21T11:26:52.879Z,87.64
2023-05-21T11:29:20.085Z,85.01
2023-05-21T11:32:03.009Z,88.42
2023-05-21T11:34:40.571Z,87.39
2023-05-21T11:37:30.196Z,90.35
2023-05-21T11:40:31.087Z,96.77
2023-05-21T11:42:58.238Z,87.91
2023-05-21T11:45:31.913Z,89.87
2023-05-21T11:48:00.367Z,82.37
2023-05-21T11:50:31.061Z,79.45
2023-05-21T11:53:07.995Z,82.85
2023-05-21T11:55:43.631Z,77.24
2023-05-21T11:58:13.749Z,74.94
2023-05-21T12:00:44.375Z,76.90
2023-05-21T12:03:14.748Z,74.98
2023-05-21T12:05:49.147Z,78.17
2023-05-21T12:08:25.767Z,82.92
2023-05-21T12:11:00.296Z,79.37
2023-05-21T12:13:28.291Z,81.62
2023-05-21T12:15:57.844Z,82.55
2023-05-21T12:18:26.396Z,76.66
2023-05-21T12:20:55.427Z,81.38
2023-05-21T12:23:28.806Z,82.03
2023-05-21T12:25:58.348Z,80.25
2023-05-21T12:28:28.868Z,80.11
2023-05-21T12:30:56.036Z,81.62
2023-05-21T12:33:26.015Z,79.02
2023-05-21T12:36:02.473Z,73.02
2023-05-21T12:38:36.037Z,77.64
2023-05-21T12:41:14.352Z,81.22
2023-05-21T12:43:42.374Z,82.31
2023-05-21T12:46:15.911Z,81.55
2023-05-21T12:49:01.061Z,83.45
2023-05-21T12:51:38.975Z,81.13
2023-05-21T12:56:56.864Z,85.31
2023-05-21T12:59:23.963Z,83.88
2023-05-21T13:01:52.329Z,84.20
2023-05-21T13:04:30.630Z,84.48
2023-05-21T13:07:02.861Z,85.44
2023-05-21T13:09:31.844Z,85.45
2023-05-21T13:11:58.815Z,86.58
2023-05-21T13:14:25.980Z,88.09
2023-05-21T13:16:53.107Z,84.16
2023-05-21T13:19:20.576Z,85.63
2023-05-21T13:21:47.678Z,90.64
2023-05-21T13:24:16.077Z,90.25
2023-05-21T13:26:43.573Z,94.04
2023-05-21T13:29:14.552Z,94.30
2023-05-21T13:31:42.303Z,92.67
2023-05-21T13:34:11.978Z,87.79
2023-05-21T13:36:41.750Z,95.13
2023-05-21T13:39:08.932Z,90.56
2023-05-21T13:41:36.656Z,90.29
2023-05-21T13:44:04.205Z,91.83
2023-05-21T13:46:31.513Z,89.53
2023-05-21T13:48:58.514Z,88.49
2023-05-21T13:51:38.771Z,90.56
2023-05-21T13:54:06.834Z,88.83
2023-05-21T13:56:40.167Z,99.63
2023-05-21T13:59:10.109Z,100.00
2023-05-21T14:01:54.012Z,100.00
2023-05-21T14:04:29.969Z,85.44
2023-05-21T14:06:57.246Z,75.57
2023-05-21T14:09:29.879Z,77.78
2023-05-21T14:12:07.719Z,76.93
2023-05-21T14:14:34.846Z,76.13
2023-05-21T14:17:06.474Z,77.02
2023-05-21T14:19:33.798Z,77.32
2023-05-21T14:22:01.220Z,74.51
2023-05-21T14:24:29.704Z,77.69
2023-05-21T14:26:57.007Z,75.93
2023-05-21T14:29:24.190Z,74.66
2023-05-21T14:32:02.341Z,77.86
2023-05-21T14:34:29.633Z,75.26
2023-05-21T14:36:56.731Z,76.19
2023-05-21T14:39:23.992Z,73.64
2023-05-21T14:41:51.118Z,76.72
2023-05-21T14:44:19.831Z,80.26
2023-05-21T14:46:46.961Z,81.66
2023-05-21T14:49:14.615Z,84.73
2023-05-21T14:51:53.848Z,85.77
2023-05-21T14:54:23.816Z,86.83
2023-05-21T14:56:51.060Z,92.55
2023-05-21T14:59:18.370Z,93.80
2023-05-21T15:01:45.578Z,96.67
2023-05-21T15:04:12.867Z,94.61
2023-05-21T15:06:41.825Z,92.91
2023-05-21T15:09:09.292Z,94.35
2023-05-21T15:11:39.108Z,93.22
2023-05-21T15:14:09.317Z,94.80
2023-05-21T15:16:39.864Z,96.71
2023-05-21T15:19:13.598Z,96.24
2023-05-21T15:21:41.100Z,95.98
2023-05-21T15:24:13.866Z,95.91
2023-05-21T15:26:41.069Z,96.62
2023-05-21T15:29:08.392Z,99.77
2023-05-21T15:31:39.883Z,100.00
2023-05-21T15:34:06.967Z,100.00
2023-05-21T15:36:42.888Z,100.00
2023-05-21T15:39:16.367Z,100.00
2023-05-21T15:41:44.182Z,100.00
2023-05-21T15:44:14.052Z,100.00
2023-05-21T15:46:41.624Z,99.77
2023-05-21T15:49:08.780Z,99.65
2023-05-21T15:51:36.085Z,98.19
2023-05-21T15:54:03.576Z,93.65
2023-05-21T15:56:34.451Z,90.29
2023-05-21T15:59:04.357Z,91.93
2023-05-21T16:01:36.633Z,96.96
2023-05-21T16:04:06.734Z,91.94
2023-05-21T16:06:36.943Z,88.72
2023-05-21T16:09:10.841Z,90.93
2023-05-21T16:11:38.257Z,92.46
2023-05-21T16:14:08.613Z,90.24
2023-05-21T16:16:35.752Z,90.84
2023-05-21T16:19:03.264Z,89.63
2023-05-21T16:21:31.997Z,85.22
2023-05-21T16:23:59.735Z,84.22
2023-05-21T16:26:33.512Z,86.23
2023-05-21T16:29:06.629Z,86.91
2023-05-21T16:31:34.625Z,83.81
2023-05-21T16:34:01.828Z,84.44
2023-05-21T16:36:28.987Z,84.52
2023-05-21T16:38:56.191Z,84.27
2023-05-21T16:41:23.346Z,83.45
2023-05-21T16:43:52.434Z,86.07
2023-05-21T16:46:20.456Z,84.64
2023-05-21T16:48:47.858Z,86.52
2023-05-21T16:51:18.321Z,88.85
2023-05-21T16:53:45.567Z,88.28
2023-05-21T16:56:12.705Z,87.09
2023-05-21T16:58:40.172Z,89.46
2023-05-21T17:01:07.418Z,88.58
2023-05-21T17:03:37.433Z,90.41
2023-05-21T17:06:07.269Z,91.07
2023-05-21T17:08:34.404Z,90.26
2023-05-21T17:11:07.804Z,88.67
2023-05-21T17:13:34.974Z,91.47
2023-05-21T17:16:02.158Z,90.63
2023-05-21T17:18:29.419Z,91.87
2023-05-21T17:20:58.823Z,89.11
2023-05-21T17:23:26.017Z,89.99
2023-05-21T17:25:53.549Z,92.00
2023-05-21T17:28:20.855Z,90.77
2023-05-21T17:30:49.640Z,91.39
2023-05-21T17:33:17.069Z,92.85
2023-05-21T17:35:45.039Z,91.63
2023-05-21T17:38:14.101Z,91.06
2023-05-21T17:40:41.554Z,93.33
2023-05-21T17:43:09.246Z,93.68
2023-05-21T17:45:36.460Z,95.73
2023-05-21T17:48:04.323Z,96.90
2023-05-21T17:50:41.680Z,96.49
2023-05-21T17:53:18.710Z,98.54
2023-05-21T17:55:46.230Z,99.08
2023-05-21T17:58:13.374Z,98.86
2023-05-21T18:00:41.142Z,100.00
2023-05-21T18:03:11.856Z,100.00
2023-05-21T18:05:39.166Z,100.00
2023-05-21T18:08:07.052Z,100.00
2023-05-21T18:10:34.129Z,100.00
2023-05-21T18:13:01.365Z,100.00
2023-05-21T18:15:28.684Z,100.00
2023-05-21T18:17:55.965Z,100.00
2023-05-21T18:20:23.392Z,100.00
2023-05-21T18:22:50.772Z,100.00
2023-05-21T18:25:18.880Z,100.00
2023-05-21T18:27:46.241Z,100.00
2023-05-21T18:30:13.930Z,100.00
2023-05-21T18:32:41.181Z,100.00
2023-05-21T18:35:11.168Z,100.00
2023-05-21T18:37:50.648Z,100.00
2023-05-21T18:40:18.151Z,100.00
2023-05-21T18:42:45.278Z,100.00
2023-05-21T18:45:13.255Z,100.00
2023-05-21T18:47:43.489Z,100.00
2023-05-21T18:50:15.709Z,100.00
2023-05-21T18:52:43.742Z,100.00
2023-05-21T18:55:10.996Z,100.00
2023-05-21T18:57:38.350Z,100.00
2023-05-21T19:00:09.685Z,100.00
2023-05-21T19:02:37.378Z,100.00
2023-05-21T19:05:05.031Z,100.00
2023-05-21T19:07:32.209Z,100.00
2023-05-21T19:10:02.657Z,100.00
2023-05-21T19:12:36.020Z,100.00
2023-05-21T19:15:04.210Z,100.00
2023-05-21T19:17:31.947Z,100.00
2023-05-21T19:19:59.049Z,100.00
2023-05-21T19:22:27.627Z,100.00
2023-05-21T19:24:54.870Z,100.00
2023-05-21T19:27:22.232Z,100.00
2023-05-21T19:29:53.654Z,100.00
2023-05-21T19:32:21.271Z,100.00
2023-05-21T19:34:48.382Z,100.00
2023-05-21T19:37:19.385Z,100.00
2023-05-21T19:39:52.232Z,100.00
2023-05-21T19:42:21.364Z,100.00
2023-05-21T19:45:00.442Z,100.00
2023-05-21T19:47:28.037Z,100.00
2023-05-21T19:49:56.499Z,100.00
2023-05-21T19:52:23.679Z,100.00
2023-05-21T19:54:51.195Z,100.00
2023-05-21T19:57:18.380Z,100.00
2023-05-21T19:59:45.594Z,100.00
2023-05-21T20:02:17.131Z,100.00
2023-05-21T20:04:44.334Z,100.00
2023-05-21T20:07:14.169Z,100.00
2023-05-21T20:09:41.311Z,100.00
2023-05-21T20:12:11.660Z,100.00
2023-05-21T20:14:39.121Z,100.00
2023-05-21T20:17:13.910Z,100.00
2023-05-21T20:19:43.307Z,100.00
2023-05-21T20:22:12.555Z,100.00
2023-05-21T20:24:43.966Z,100.00
2023-05-21T20:27:11.330Z,100.00
2023-05-21T20:29:38.490Z,100.00
2023-05-21T20:32:06.342Z,100.00
2023-05-21T20:34:35.884Z,100.00
2023-05-21T20:37:06.313Z,100.00
2023-05-21T20:39:42.669Z,100.00
2023-05-21T20:42:22.910Z,100.00
2023-05-21T20:44:56.156Z,100.00
2023-05-21T20:47:23.488Z,100.00
2023-05-21T20:49:53.786Z,100.00
2023-05-21T20:52:25.188Z,100.00
2023-05-21T20:55:02.222Z,100.00
2023-05-21T20:57:30.103Z,100.00
2023-05-21T20:59:58.025Z,100.00
2023-05-21T21:02:25.450Z,100.00
2023-05-21T21:04:56.256Z,100.00
2023-05-21T21:07:26.686Z,100.00
2023-05-21T21:09:56.703Z,100.00
2023-05-21T21:12:26.796Z,100.00
2023-05-21T21:14:55.405Z,100.00
2023-05-21T21:17:25.500Z,100.00
2023-05-21T21:19:53.038Z,100.00
2023-05-21T21:22:23.405Z,100.00
2023-05-21T21:24:51.880Z,100.00
2023-05-21T21:27:19.060Z,100.00
2023-05-21T21:29:46.526Z,100.00
2023-05-21T21:32:16.065Z,100.00
2023-05-21T21:34:43.466Z,100.00
2023-05-21T21:37:11.558Z,100.00
2023-05-21T21:39:39.135Z,100.00
2023-05-21T21:42:07.832Z,100.00
2023-05-21T21:44:34.957Z,100.00
2023-05-21T21:47:02.078Z,100.00
2023-05-21T21:49:36.784Z,100.00
2023-05-21T21:52:07.343Z,100.00
2023-05-21T21:54:34.673Z,100.00
2023-05-21T21:57:04.764Z,100.00
2023-05-21T21:59:32.345Z,100.00
2023-05-21T22:01:59.666Z,100.00
2023-05-21T22:04:26.870Z,100.00
2023-05-21T22:06:54.631Z,100.00
2023-05-21T22:09:22.596Z,100.00
2023-05-21T22:11:49.908Z,100.00
2023-05-21T22:18:40.423Z,100.00
2023-05-21T22:34:25.770Z,100.00
2023-05-21T22:36:52.915Z,100.00
2023-05-21T22:39:22.373Z,100.00
2023-05-21T22:41:50.671Z,100.00
2023-05-21T22:44:19.196Z,100.00
2023-05-21T22:46:47.800Z,100.00
2023-05-21T22:49:19.869Z,100.00
2023-05-21T22:51:47.265Z,100.00
2023-05-21T22:54:14.612Z,100.00
2023-05-21T22:56:41.792Z,100.00
2023-05-21T22:59:08.997Z,100.00
2023-05-21T23:01:38.066Z,100.00
2023-05-21T23:04:05.572Z,100.00
2023-05-21T23:06:33.672Z,100.00
2023-05-21T23:09:00.955Z,100.00
2023-05-21T23:42:01.641Z,100.00
2023-05-21T23:44:33.476Z,100.00
2023-05-21T23:47:01.301Z,100.00
2023-05-21T23:49:28.457Z,100.00
2023-05-21T23:51:56.331Z,100.00
2023-05-21T23:54:23.605Z,100.00
2023-05-21T23:56:50.876Z,100.00
2023-05-21T23:59:18.646Z,100.00
